sensor_id;sensor_type;location;lat;lon;timestamp;temperature;humidity
66119;DHT22;52912;48.564;9.302;2023-02-28T00:01:28;-2.01;74.68
66119;DHT22;52912;48.564;9.302;2023-02-28T00:03:54;-2.01;74.74
66119;DHT22;52912;48.564;9.302;2023-02-28T00:06:19;-1.97;74.77
66119;DHT22;52912;48.564;9.302;2023-02-28T00:08:45;-2.01;74.91
66119;DHT22;52912;48.564;9.302;2023-02-28T00:11:12;-2.09;74.99
66119;DHT22;52912;48.564;9.302;2023-02-28T00:13:40;-2.12;75.20
66119;DHT22;52912;48.564;9.302;2023-02-28T00:16:08;-2.12;75.49
66119;DHT22;52912;48.564;9.302;2023-02-28T00:18:34;-2.12;75.41
66119;DHT22;52912;48.564;9.302;2023-02-28T00:20:59;-2.13;75.40
66119;DHT22;52912;48.564;9.302;2023-02-28T00:23:25;-2.09;75.44
66119;DHT22;52912;48.564;9.302;2023-02-28T00:25:51;-2.13;75.50
66119;DHT22;52912;48.564;9.302;2023-02-28T00:28:16;-2.16;75.61
66119;DHT22;52912;48.564;9.302;2023-02-28T00:30:43;-2.15;75.74
66119;DHT22;52912;48.564;9.302;2023-02-28T00:33:09;-2.12;75.80
66119;DHT22;52912;48.564;9.302;2023-02-28T00:35:34;-2.13;75.96
66119;DHT22;52912;48.564;9.302;2023-02-28T00:38:00;-2.21;76.13
66119;DHT22;52912;48.564;9.302;2023-02-28T00:40:25;-2.19;76.26
66119;DHT22;52912;48.564;9.302;2023-02-28T00:42:50;-2.21;76.30
66119;DHT22;52912;48.564;9.302;2023-02-28T00:45:16;-2.19;76.54
66119;DHT22;52912;48.564;9.302;2023-02-28T00:47:43;-2.16;76.46
66119;DHT22;52912;48.564;9.302;2023-02-28T00:50:09;-2.21;76.57
66119;DHT22;52912;48.564;9.302;2023-02-28T00:52:35;-2.23;76.76
66119;DHT22;52912;48.564;9.302;2023-02-28T00:55:00;-2.19;76.78
66119;DHT22;52912;48.564;9.302;2023-02-28T00:57:26;-2.23;76.97
66119;DHT22;52912;48.564;9.302;2023-02-28T00:59:51;-2.19;76.91
66119;DHT22;52912;48.564;9.302;2023-02-28T01:02:17;-2.23;77.21
66119;DHT22;52912;48.564;9.302;2023-02-28T01:04:43;-2.21;77.34
66119;DHT22;52912;48.564;9.302;2023-02-28T01:07:09;-2.23;77.42
66119;DHT22;52912;48.564;9.302;2023-02-28T01:09:35;-2.23;77.60
66119;DHT22;52912;48.564;9.302;2023-02-28T01:12:00;-2.19;77.55
66119;DHT22;52912;48.564;9.302;2023-02-28T01:14:25;-2.22;77.79
66119;DHT22;52912;48.564;9.302;2023-02-28T01:16:51;-2.22;77.73
66119;DHT22;52912;48.564;9.302;2023-02-28T01:19:16;-2.28;78.10
66119;DHT22;52912;48.564;9.302;2023-02-28T01:21:43;-2.18;78.34
66119;DHT22;52912;48.564;9.302;2023-02-28T01:24:09;-2.16;78.30
66119;DHT22;52912;48.564;9.302;2023-02-28T01:26:37;-2.25;78.68
66119;DHT22;52912;48.564;9.302;2023-02-28T01:29:02;-2.21;78.76
66119;DHT22;52912;48.564;9.302;2023-02-28T01:31:28;-2.26;78.85
66119;DHT22;52912;48.564;9.302;2023-02-28T01:33:53;-2.15;78.77
66119;DHT22;52912;48.564;9.302;2023-02-28T01:36:20;-2.18;79.01
66119;DHT22;52912;48.564;9.302;2023-02-28T01:38:48;-2.23;79.09
66119;DHT22;52912;48.564;9.302;2023-02-28T01:41:16;-2.23;79.10
66119;DHT22;52912;48.564;9.302;2023-02-28T01:44:00;-2.19;79.11
66119;DHT22;52912;48.564;9.302;2023-02-28T01:46:25;-2.18;79.11
66119;DHT22;52912;48.564;9.302;2023-02-28T01:48:53;-2.26;79.23
66119;DHT22;52912;48.564;9.302;2023-02-28T01:51:22;-2.26;79.41
66119;DHT22;52912;48.564;9.302;2023-02-28T01:53:54;-2.34;79.65
66119;DHT22;52912;48.564;9.302;2023-02-28T01:56:24;-2.30;79.83
66119;DHT22;52912;48.564;9.302;2023-02-28T01:58:52;-2.30;79.66
66119;DHT22;52912;48.564;9.302;2023-02-28T02:01:18;-2.30;79.54
66119;DHT22;52912;48.564;9.302;2023-02-28T02:03:43;-2.32;79.63
66119;DHT22;52912;48.564;9.302;2023-02-28T02:06:09;-2.30;79.53
66119;DHT22;52912;48.564;9.302;2023-02-28T02:08:36;-2.30;79.51
66119;DHT22;52912;48.564;9.302;2023-02-28T02:11:03;-2.33;79.72
66119;DHT22;52912;48.564;9.302;2023-02-28T02:16:35;-2.33;79.62
66119;DHT22;52912;48.564;9.302;2023-02-28T02:19:17;-2.30;79.69
66119;DHT22;52912;48.564;9.302;2023-02-28T02:25:01;-2.28;79.63
66119;DHT22;52912;48.564;9.302;2023-02-28T02:27:44;-2.29;79.72
66119;DHT22;52912;48.564;9.302;2023-02-28T02:30:24;-2.26;79.87
66119;DHT22;52912;48.564;9.302;2023-02-28T02:33:14;-2.29;79.90
66119;DHT22;52912;48.564;9.302;2023-02-28T02:35:49;-2.29;80.10
66119;DHT22;52912;48.564;9.302;2023-02-28T02:38:27;-2.25;79.95
66119;DHT22;52912;48.564;9.302;2023-02-28T02:40:58;-2.18;79.87
66119;DHT22;52912;48.564;9.302;2023-02-28T02:43:33;-2.19;79.68
66119;DHT22;52912;48.564;9.302;2023-02-28T02:46:04;-2.26;79.80
66119;DHT22;52912;48.564;9.302;2023-02-28T02:48:34;-2.25;79.95
66119;DHT22;52912;48.564;9.302;2023-02-28T02:51:06;-2.25;79.92
66119;DHT22;52912;48.564;9.302;2023-02-28T02:53:35;-2.16;79.83
66119;DHT22;52912;48.564;9.302;2023-02-28T02:56:03;-2.13;79.71
66119;DHT22;52912;48.564;9.302;2023-02-28T02:58:32;-2.19;79.87
66119;DHT22;52912;48.564;9.302;2023-02-28T03:01:01;-2.21;80.07
66119;DHT22;52912;48.564;9.302;2023-02-28T03:03:28;-2.08;80.06
66119;DHT22;52912;48.564;9.302;2023-02-28T03:05:56;-2.13;80.07
66119;DHT22;52912;48.564;9.302;2023-02-28T03:08:23;-2.16;80.25
66119;DHT22;52912;48.564;9.302;2023-02-28T03:10:50;-2.13;80.16
66119;DHT22;52912;48.564;9.302;2023-02-28T03:16:21;-2.13;80.19
66119;DHT22;52912;48.564;9.302;2023-02-28T03:18:54;-2.05;80.24
66119;DHT22;52912;48.564;9.302;2023-02-28T03:21:27;-2.08;80.30
66119;DHT22;52912;48.564;9.302;2023-02-28T03:24:03;-2.09;80.37
66119;DHT22;52912;48.564;9.302;2023-02-28T03:26:31;-2.05;80.39
66119;DHT22;52912;48.564;9.302;2023-02-28T03:29:02;-1.98;80.31
66119;DHT22;52912;48.564;9.302;2023-02-28T03:31:32;-2.03;80.47
66119;DHT22;52912;48.564;9.302;2023-02-28T03:34:02;-2.03;80.63
66119;DHT22;52912;48.564;9.302;2023-02-28T03:36:32;-1.98;80.69
66119;DHT22;52912;48.564;9.302;2023-02-28T03:39:03;-2.03;80.64
66119;DHT22;52912;48.564;9.302;2023-02-28T03:41:32;-1.99;80.64
66119;DHT22;52912;48.564;9.302;2023-02-28T03:44:03;-2.01;80.74
66119;DHT22;52912;48.564;9.302;2023-02-28T03:46:34;-2.02;81.06
66119;DHT22;52912;48.564;9.302;2023-02-28T03:49:03;-1.89;80.66
66119;DHT22;52912;48.564;9.302;2023-02-28T03:51:32;-1.99;81.06
66119;DHT22;52912;48.564;9.302;2023-02-28T03:54:03;-2.08;81.34
66119;DHT22;52912;48.564;9.302;2023-02-28T03:56:33;-1.99;81.58
66119;DHT22;52912;48.564;9.302;2023-02-28T03:59:02;-1.98;81.77
66119;DHT22;52912;48.564;9.302;2023-02-28T04:01:33;-1.94;81.40
66119;DHT22;52912;48.564;9.302;2023-02-28T04:04:00;-1.99;81.75
66119;DHT22;52912;48.564;9.302;2023-02-28T04:06:26;-1.98;81.66
66119;DHT22;52912;48.564;9.302;2023-02-28T04:08:52;-1.97;81.80
66119;DHT22;52912;48.564;9.302;2023-02-28T04:11:22;-1.98;81.72
66119;DHT22;52912;48.564;9.302;2023-02-28T04:13:48;-1.95;81.62
66119;DHT22;52912;48.564;9.302;2023-02-28T04:16:13;-1.95;81.46
66119;DHT22;52912;48.564;9.302;2023-02-28T04:18:39;-1.95;81.64
66119;DHT22;52912;48.564;9.302;2023-02-28T04:21:05;-2.02;81.67
66119;DHT22;52912;48.564;9.302;2023-02-28T04:23:31;-1.99;81.93
66119;DHT22;52912;48.564;9.302;2023-02-28T04:25:57;-2.01;81.90
66119;DHT22;52912;48.564;9.302;2023-02-28T04:28:23;-1.85;81.71
66119;DHT22;52912;48.564;9.302;2023-02-28T04:30:54;-1.92;81.79
66119;DHT22;52912;48.564;9.302;2023-02-28T04:33:20;-1.89;81.70
66119;DHT22;52912;48.564;9.302;2023-02-28T04:35:45;-1.94;81.66
66119;DHT22;52912;48.564;9.302;2023-02-28T04:38:11;-1.98;81.81
66119;DHT22;52912;48.564;9.302;2023-02-28T04:40:36;-1.85;81.71
66119;DHT22;52912;48.564;9.302;2023-02-28T04:43:02;-1.91;81.66
66119;DHT22;52912;48.564;9.302;2023-02-28T04:45:28;-1.92;81.49
66119;DHT22;52912;48.564;9.302;2023-02-28T04:47:54;-1.92;81.64
66119;DHT22;52912;48.564;9.302;2023-02-28T04:50:19;-1.91;81.85
66119;DHT22;52912;48.564;9.302;2023-02-28T04:52:45;-1.97;81.79
66119;DHT22;52912;48.564;9.302;2023-02-28T04:55:10;-1.91;81.96
66119;DHT22;52912;48.564;9.302;2023-02-28T04:57:36;-1.89;81.85
66119;DHT22;52912;48.564;9.302;2023-02-28T05:00:01;-1.88;81.95
66119;DHT22;52912;48.564;9.302;2023-02-28T05:02:28;-1.87;81.87
66119;DHT22;52912;48.564;9.302;2023-02-28T05:04:53;-1.84;81.84
66119;DHT22;52912;48.564;9.302;2023-02-28T05:07:19;-1.85;81.76
66119;DHT22;52912;48.564;9.302;2023-02-28T05:09:44;-1.87;81.89
66119;DHT22;52912;48.564;9.302;2023-02-28T05:12:10;-1.88;82.01
66119;DHT22;52912;48.564;9.302;2023-02-28T05:14:35;-1.89;82.09
66119;DHT22;52912;48.564;9.302;2023-02-28T05:17:01;-1.92;82.05
66119;DHT22;52912;48.564;9.302;2023-02-28T05:19:27;-1.87;82.20
66119;DHT22;52912;48.564;9.302;2023-02-28T05:21:54;-1.89;82.03
66119;DHT22;52912;48.564;9.302;2023-02-28T05:24:20;-1.87;82.19
66119;DHT22;52912;48.564;9.302;2023-02-28T05:26:45;-1.84;82.15
66119;DHT22;52912;48.564;9.302;2023-02-28T05:29:11;-1.82;82.17
66119;DHT22;52912;48.564;9.302;2023-02-28T05:31:37;-1.82;82.27
66119;DHT22;52912;48.564;9.302;2023-02-28T05:34:03;-1.74;81.92
66119;DHT22;52912;48.564;9.302;2023-02-28T05:36:30;-1.78;82.04
66119;DHT22;52912;48.564;9.302;2023-02-28T05:38:55;-1.77;82.02
66119;DHT22;52912;48.564;9.302;2023-02-28T05:41:21;-1.72;81.86
66119;DHT22;52912;48.564;9.302;2023-02-28T05:43:47;-1.71;81.88
66119;DHT22;52912;48.564;9.302;2023-02-28T05:46:13;-1.77;81.70
66119;DHT22;52912;48.564;9.302;2023-02-28T05:48:40;-1.78;81.89
66119;DHT22;52912;48.564;9.302;2023-02-28T05:51:07;-1.75;81.84
66119;DHT22;52912;48.564;9.302;2023-02-28T05:53:34;-1.71;81.60
66119;DHT22;52912;48.564;9.302;2023-02-28T05:56:00;-1.64;81.57
66119;DHT22;52912;48.564;9.302;2023-02-28T05:58:26;-1.70;81.59
66119;DHT22;52912;48.564;9.302;2023-02-28T06:00:52;-1.70;81.62
66119;DHT22;52912;48.564;9.302;2023-02-28T06:03:17;-1.71;81.44
66119;DHT22;52912;48.564;9.302;2023-02-28T06:05:43;-1.71;81.61
66119;DHT22;52912;48.564;9.302;2023-02-28T06:08:08;-1.72;81.59
66119;DHT22;52912;48.564;9.302;2023-02-28T06:10:35;-1.67;81.31
66119;DHT22;52912;48.564;9.302;2023-02-28T06:13:01;-1.70;81.50
66119;DHT22;52912;48.564;9.302;2023-02-28T06:15:26;-1.60;81.28
66119;DHT22;52912;48.564;9.302;2023-02-28T06:17:52;-1.67;81.06
66119;DHT22;52912;48.564;9.302;2023-02-28T06:20:17;-1.66;81.04
66119;DHT22;52912;48.564;9.302;2023-02-28T06:22:43;-1.70;81.14
66119;DHT22;52912;48.564;9.302;2023-02-28T06:25:09;-1.70;81.17
66119;DHT22;52912;48.564;9.302;2023-02-28T06:27:36;-1.67;81.20
66119;DHT22;52912;48.564;9.302;2023-02-28T06:30:02;-1.66;81.17
66119;DHT22;52912;48.564;9.302;2023-02-28T06:32:28;-1.63;80.95
66119;DHT22;52912;48.564;9.302;2023-02-28T06:34:54;-1.52;80.98
66119;DHT22;52912;48.564;9.302;2023-02-28T06:37:19;-1.49;80.62
66119;DHT22;52912;48.564;9.302;2023-02-28T06:39:45;-1.56;80.58
66119;DHT22;52912;48.564;9.302;2023-02-28T06:42:10;-1.63;81.00
66119;DHT22;52912;48.564;9.302;2023-02-28T06:44:38;-1.54;80.79
66119;DHT22;52912;48.564;9.302;2023-02-28T06:47:05;-1.56;80.60
66119;DHT22;52912;48.564;9.302;2023-02-28T06:49:31;-1.59;80.60
66119;DHT22;52912;48.564;9.302;2023-02-28T06:51:57;-1.54;80.67
66119;DHT22;52912;48.564;9.302;2023-02-28T06:54:22;-1.52;80.54
66119;DHT22;52912;48.564;9.302;2023-02-28T06:56:48;-1.43;80.54
66119;DHT22;52912;48.564;9.302;2023-02-28T06:59:13;-1.25;79.99
66119;DHT22;52912;48.564;9.302;2023-02-28T07:01:40;-1.28;79.63
66119;DHT22;52912;48.564;9.302;2023-02-28T07:04:06;-1.20;79.65
66119;DHT22;52912;48.564;9.302;2023-02-28T07:06:32;-1.04;79.23
66119;DHT22;52912;48.564;9.302;2023-02-28T07:08:57;-1.01;78.81
66119;DHT22;52912;48.564;9.302;2023-02-28T07:11:24;-1.07;78.61
66119;DHT22;52912;48.564;9.302;2023-02-28T07:13:51;-0.95;77.87
66119;DHT22;52912;48.564;9.302;2023-02-28T07:16:16;-0.95;77.77
66119;DHT22;52912;48.564;9.302;2023-02-28T07:18:43;-0.90;77.36
66119;DHT22;52912;48.564;9.302;2023-02-28T07:21:10;-0.90;77.47
66119;DHT22;52912;48.564;9.302;2023-02-28T07:23:36;-0.90;77.65
66119;DHT22;52912;48.564;9.302;2023-02-28T07:26:01;-0.87;77.14
66119;DHT22;52912;48.564;9.302;2023-02-28T07:28:27;-0.80;76.35
66119;DHT22;52912;48.564;9.302;2023-02-28T07:30:53;-0.91;76.30
66119;DHT22;52912;48.564;9.302;2023-02-28T07:33:18;-0.83;76.50
66119;DHT22;52912;48.564;9.302;2023-02-28T07:35:45;-0.69;76.40
66119;DHT22;52912;48.564;9.302;2023-02-28T07:38:11;-0.60;75.64
66119;DHT22;52912;48.564;9.302;2023-02-28T07:40:36;-0.71;76.02
66119;DHT22;52912;48.564;9.302;2023-02-28T07:43:03;-0.64;75.92
66119;DHT22;52912;48.564;9.302;2023-02-28T07:45:29;-0.67;75.62
66119;DHT22;52912;48.564;9.302;2023-02-28T07:47:55;-0.67;75.63
66119;DHT22;52912;48.564;9.302;2023-02-28T07:50:21;-0.59;75.73
66119;DHT22;52912;48.564;9.302;2023-02-28T07:52:48;-0.57;75.79
66119;DHT22;52912;48.564;9.302;2023-02-28T07:55:13;-0.56;75.49
66119;DHT22;52912;48.564;9.302;2023-02-28T07:57:39;-0.57;75.70
66119;DHT22;52912;48.564;9.302;2023-02-28T08:00:08;-0.63;76.01
66119;DHT22;52912;48.564;9.302;2023-02-28T08:02:33;-0.62;75.95
66119;DHT22;52912;48.564;9.302;2023-02-28T08:04:59;-0.45;75.46
66119;DHT22;52912;48.564;9.302;2023-02-28T08:07:25;-0.59;75.32
66119;DHT22;52912;48.564;9.302;2023-02-28T08:09:52;-0.48;75.00
66119;DHT22;52912;48.564;9.302;2023-02-28T08:12:17;-0.64;75.48
66119;DHT22;52912;48.564;9.302;2023-02-28T08:14:42;-0.56;75.32
66119;DHT22;52912;48.564;9.302;2023-02-28T08:17:09;-0.60;75.36
66119;DHT22;52912;48.564;9.302;2023-02-28T08:19:34;-0.53;75.12
66119;DHT22;52912;48.564;9.302;2023-02-28T08:21:59;-0.49;74.96
66119;DHT22;52912;48.564;9.302;2023-02-28T08:24:25;-0.54;75.32
66119;DHT22;52912;48.564;9.302;2023-02-28T08:26:52;-0.52;75.37
66119;DHT22;52912;48.564;9.302;2023-02-28T08:29:17;-0.40;75.24
66119;DHT22;52912;48.564;9.302;2023-02-28T08:31:43;-0.30;74.99
66119;DHT22;52912;48.564;9.302;2023-02-28T08:34:10;-0.33;74.53
66119;DHT22;52912;48.564;9.302;2023-02-28T08:36:36;-0.35;74.46
66119;DHT22;52912;48.564;9.302;2023-02-28T08:39:02;-0.39;74.73
66119;DHT22;52912;48.564;9.302;2023-02-28T08:41:28;-0.42;74.79
66119;DHT22;52912;48.564;9.302;2023-02-28T08:43:54;-0.40;74.51
66119;DHT22;52912;48.564;9.302;2023-02-28T08:46:20;-0.28;74.52
66119;DHT22;52912;48.564;9.302;2023-02-28T08:48:46;-0.25;74.08
66119;DHT22;52912;48.564;9.302;2023-02-28T08:51:13;-0.25;74.28
66119;DHT22;52912;48.564;9.302;2023-02-28T08:53:40;-0.05;73.74
66119;DHT22;52912;48.564;9.302;2023-02-28T08:56:07;-0.09;73.58
66119;DHT22;52912;48.564;9.302;2023-02-28T08:58:33;0.03;73.16
66119;DHT22;52912;48.564;9.302;2023-02-28T09:01:00;-0.12;73.93
66119;DHT22;52912;48.564;9.302;2023-02-28T09:03:26;-0.02;73.57
66119;DHT22;52912;48.564;9.302;2023-02-28T09:05:53;0.05;73.12
66119;DHT22;52912;48.564;9.302;2023-02-28T09:08:19;-0.01;73.34
66119;DHT22;52912;48.564;9.302;2023-02-28T09:10:44;0.06;73.68
66119;DHT22;52912;48.564;9.302;2023-02-28T09:13:10;0.11;73.02
66119;DHT22;52912;48.564;9.302;2023-02-28T09:15:36;0.09;73.24
66119;DHT22;52912;48.564;9.302;2023-02-28T09:18:03;0.16;73.28
66119;DHT22;52912;48.564;9.302;2023-02-28T09:20:29;0.24;73.02
66119;DHT22;52912;48.564;9.302;2023-02-28T09:22:55;0.10;73.23
66119;DHT22;52912;48.564;9.302;2023-02-28T09:25:20;0.26;72.93
66119;DHT22;52912;48.564;9.302;2023-02-28T09:27:46;0.19;72.88
66119;DHT22;52912;48.564;9.302;2023-02-28T09:30:12;0.21;73.14
66119;DHT22;52912;48.564;9.302;2023-02-28T09:32:38;0.20;72.73
66119;DHT22;52912;48.564;9.302;2023-02-28T09:35:08;0.14;72.83
66119;DHT22;52912;48.564;9.302;2023-02-28T09:37:34;0.06;72.99
66119;DHT22;52912;48.564;9.302;2023-02-28T09:39:59;0.26;72.86
66119;DHT22;52912;48.564;9.302;2023-02-28T09:42:28;0.19;72.89
66119;DHT22;52912;48.564;9.302;2023-02-28T09:44:56;0.24;72.38
66119;DHT22;52912;48.564;9.302;2023-02-28T09:47:29;0.38;72.13
66119;DHT22;52912;48.564;9.302;2023-02-28T09:49:57;0.41;71.80
66119;DHT22;52912;48.564;9.302;2023-02-28T09:52:28;0.28;72.29
66119;DHT22;52912;48.564;9.302;2023-02-28T09:54:54;0.43;72.14
66119;DHT22;52912;48.564;9.302;2023-02-28T09:57:29;0.55;71.91
66119;DHT22;52912;48.564;9.302;2023-02-28T10:00:07;0.43;71.93
66119;DHT22;52912;48.564;9.302;2023-02-28T10:02:56;0.51;71.73
66119;DHT22;52912;48.564;9.302;2023-02-28T10:05:24;0.58;71.68
66119;DHT22;52912;48.564;9.302;2023-02-28T10:08:02;0.68;71.42
66119;DHT22;52912;48.564;9.302;2023-02-28T10:10:32;0.69;71.48
66119;DHT22;52912;48.564;9.302;2023-02-28T10:13:02;0.62;71.44
66119;DHT22;52912;48.564;9.302;2023-02-28T10:15:31;0.85;71.07
66119;DHT22;52912;48.564;9.302;2023-02-28T10:17:59;0.93;70.96
66119;DHT22;52912;48.564;9.302;2023-02-28T10:20:26;0.92;70.63
66119;DHT22;52912;48.564;9.302;2023-02-28T10:22:58;0.88;70.69
66119;DHT22;52912;48.564;9.302;2023-02-28T10:25:27;1.12;70.74
66119;DHT22;52912;48.564;9.302;2023-02-28T10:27:54;1.34;70.29
66119;DHT22;52912;48.564;9.302;2023-02-28T10:30:25;1.17;70.34
66119;DHT22;52912;48.564;9.302;2023-02-28T10:32:51;1.52;69.45
66119;DHT22;52912;48.564;9.302;2023-02-28T10:35:19;1.62;69.27
66119;DHT22;52912;48.564;9.302;2023-02-28T10:37:46;1.76;68.72
66119;DHT22;52912;48.564;9.302;2023-02-28T10:40:30;1.96;68.73
66119;DHT22;52912;48.564;9.302;2023-02-28T10:42:58;2.16;67.76
66119;DHT22;52912;48.564;9.302;2023-02-28T10:45:25;2.09;67.90
66119;DHT22;52912;48.564;9.302;2023-02-28T10:47:53;2.18;67.65
66119;DHT22;52912;48.564;9.302;2023-02-28T10:50:32;2.10;68.22
66119;DHT22;52912;48.564;9.302;2023-02-28T10:53:16;2.16;67.26
66119;DHT22;52912;48.564;9.302;2023-02-28T10:55:43;1.99;68.40
66119;DHT22;52912;48.564;9.302;2023-02-28T10:58:22;2.16;67.71
66119;DHT22;52912;48.564;9.302;2023-02-28T11:00:48;2.24;67.79
66119;DHT22;52912;48.564;9.302;2023-02-28T11:03:24;2.46;66.75
66119;DHT22;52912;48.564;9.302;2023-02-28T11:05:50;2.09;67.43
66119;DHT22;52912;48.564;9.302;2023-02-28T11:08:17;2.11;67.48
66119;DHT22;52912;48.564;9.302;2023-02-28T11:10:47;2.06;67.85
66119;DHT22;52912;48.564;9.302;2023-02-28T11:13:17;2.11;67.57
66119;DHT22;52912;48.564;9.302;2023-02-28T11:15:50;2.23;67.48
66119;DHT22;52912;48.564;9.302;2023-02-28T11:18:23;2.61;66.40
66119;DHT22;52912;48.564;9.302;2023-02-28T11:20:50;3.06;65.46
66119;DHT22;52912;48.564;9.302;2023-02-28T11:23:18;2.89;66.08
66119;DHT22;52912;48.564;9.302;2023-02-28T11:25:49;3.17;65.47
66119;DHT22;52912;48.564;9.302;2023-02-28T11:28:26;2.93;65.29
66119;DHT22;52912;48.564;9.302;2023-02-28T11:31:04;2.93;66.00
66119;DHT22;52912;48.564;9.302;2023-02-28T11:33:31;3.45;65.99
66119;DHT22;52912;48.564;9.302;2023-02-28T11:36:00;3.31;65.30
66119;DHT22;52912;48.564;9.302;2023-02-28T11:38:26;3.62;64.72
66119;DHT22;52912;48.564;9.302;2023-02-28T11:41:04;3.66;63.85
66119;DHT22;52912;48.564;9.302;2023-02-28T11:43:40;4.52;62.84
66119;DHT22;52912;48.564;9.302;2023-02-28T11:46:19;4.86;62.63
66119;DHT22;52912;48.564;9.302;2023-02-28T11:48:53;4.14;62.26
66119;DHT22;52912;48.564;9.302;2023-02-28T11:51:22;3.78;63.99
66119;DHT22;52912;48.564;9.302;2023-02-28T11:54:02;4.22;62.62
66119;DHT22;52912;48.564;9.302;2023-02-28T11:56:33;4.45;62.03
66119;DHT22;52912;48.564;9.302;2023-02-28T11:59:13;4.59;61.85
66119;DHT22;52912;48.564;9.302;2023-02-28T12:02:05;4.21;62.47
66119;DHT22;52912;48.564;9.302;2023-02-28T12:04:36;4.15;61.92
66119;DHT22;52912;48.564;9.302;2023-02-28T12:07:13;4.93;61.30
66119;DHT22;52912;48.564;9.302;2023-02-28T12:09:49;5.67;59.80
66119;DHT22;52912;48.564;9.302;2023-02-28T12:12:29;6.04;59.45
66119;DHT22;52912;48.564;9.302;2023-02-28T12:15:12;6.33;57.65
66119;DHT22;52912;48.564;9.302;2023-02-28T12:17:51;6.76;57.37
66119;DHT22;52912;48.564;9.302;2023-02-28T12:20:26;6.45;57.42
66119;DHT22;52912;48.564;9.302;2023-02-28T12:23:15;6.57;57.30
66119;DHT22;52912;48.564;9.302;2023-02-28T12:25:59;7.26;55.06
66119;DHT22;52912;48.564;9.302;2023-02-28T12:28:30;7.81;54.11
66119;DHT22;52912;48.564;9.302;2023-02-28T12:31:00;7.30;55.52
66119;DHT22;52912;48.564;9.302;2023-02-28T12:33:32;6.70;55.93
66119;DHT22;52912;48.564;9.302;2023-02-28T12:36:01;7.05;56.29
66119;DHT22;52912;48.564;9.302;2023-02-28T12:38:34;6.98;56.77
66119;DHT22;52912;48.564;9.302;2023-02-28T12:41:04;6.69;56.86
66119;DHT22;52912;48.564;9.302;2023-02-28T12:43:34;6.63;56.34
66119;DHT22;52912;48.564;9.302;2023-02-28T12:46:06;6.88;56.53
66119;DHT22;52912;48.564;9.302;2023-02-28T12:48:39;7.40;55.00
66119;DHT22;52912;48.564;9.302;2023-02-28T12:51:06;6.77;56.45
66119;DHT22;52912;48.564;9.302;2023-02-28T12:53:39;6.84;56.72
66119;DHT22;52912;48.564;9.302;2023-02-28T12:56:13;6.45;56.88
66119;DHT22;52912;48.564;9.302;2023-02-28T12:58:45;6.17;58.04
66119;DHT22;52912;48.564;9.302;2023-02-28T13:01:30;6.14;58.17
66119;DHT22;52912;48.564;9.302;2023-02-28T13:04:39;7.16;56.61
66119;DHT22;52912;48.564;9.302;2023-02-28T13:07:23;7.78;54.73
66119;DHT22;52912;48.564;9.302;2023-02-28T13:09:55;8.26;53.99
66119;DHT22;52912;48.564;9.302;2023-02-28T13:12:21;8.18;53.73
66119;DHT22;52912;48.564;9.302;2023-02-28T13:14:48;8.37;53.55
66119;DHT22;52912;48.564;9.302;2023-02-28T13:17:18;8.53;52.73
66119;DHT22;52912;48.564;9.302;2023-02-28T13:19:46;7.85;53.42
66119;DHT22;52912;48.564;9.302;2023-02-28T13:22:39;8.24;53.24
66119;DHT22;52912;48.564;9.302;2023-02-28T13:31:33;8.42;52.76
66119;DHT22;52912;48.564;9.302;2023-02-28T13:34:18;8.21;52.53
66119;DHT22;52912;48.564;9.302;2023-02-28T13:36:44;7.94;53.25
66119;DHT22;52912;48.564;9.302;2023-02-28T13:39:47;8.01;53.63
66119;DHT22;52912;48.564;9.302;2023-02-28T13:42:32;7.92;52.94
66119;DHT22;52912;48.564;9.302;2023-02-28T13:45:20;7.42;54.57
66119;DHT22;52912;48.564;9.302;2023-02-28T13:47:52;7.74;53.89
66119;DHT22;52912;48.564;9.302;2023-02-28T13:50:22;8.01;53.03
66119;DHT22;52912;48.564;9.302;2023-02-28T13:52:55;7.71;53.36
66119;DHT22;52912;48.564;9.302;2023-02-28T13:55:29;8.11;53.37
66119;DHT22;52912;48.564;9.302;2023-02-28T13:58:27;7.99;53.39
66119;DHT22;52912;48.564;9.302;2023-02-28T14:01:11;8.46;53.46
66119;DHT22;52912;48.564;9.302;2023-02-28T14:03:53;8.05;53.28
66119;DHT22;52912;48.564;9.302;2023-02-28T14:06:25;7.64;53.73
66119;DHT22;52912;48.564;9.302;2023-02-28T14:08:57;7.71;53.61
66119;DHT22;52912;48.564;9.302;2023-02-28T14:11:29;7.75;53.56
66119;DHT22;52912;48.564;9.302;2023-02-28T14:13:55;7.77;53.37
66119;DHT22;52912;48.564;9.302;2023-02-28T14:16:23;7.77;54.09
66119;DHT22;52912;48.564;9.302;2023-02-28T14:18:56;8.02;53.47
66119;DHT22;52912;48.564;9.302;2023-02-28T14:21:25;8.03;53.65
66119;DHT22;52912;48.564;9.302;2023-02-28T14:24:10;7.97;53.43
66119;DHT22;52912;48.564;9.302;2023-02-28T14:27:11;7.87;53.69
66119;DHT22;52912;48.564;9.302;2023-02-28T14:30:07;8.30;52.94
66119;DHT22;52912;48.564;9.302;2023-02-28T14:32:41;8.47;52.43
66119;DHT22;52912;48.564;9.302;2023-02-28T14:35:21;8.05;52.89
66119;DHT22;52912;48.564;9.302;2023-02-28T14:37:47;7.83;53.41
66119;DHT22;52912;48.564;9.302;2023-02-28T14:40:17;7.69;53.88
66119;DHT22;52912;48.564;9.302;2023-02-28T14:42:55;8.06;53.73
66119;DHT22;52912;48.564;9.302;2023-02-28T14:45:22;7.56;54.55
66119;DHT22;52912;48.564;9.302;2023-02-28T14:47:49;7.73;54.28
66119;DHT22;52912;48.564;9.302;2023-02-28T14:50:21;7.97;53.64
66119;DHT22;52912;48.564;9.302;2023-02-28T14:52:50;7.75;53.65
66119;DHT22;52912;48.564;9.302;2023-02-28T14:55:18;7.63;53.52
66119;DHT22;52912;48.564;9.302;2023-02-28T14:57:51;7.83;53.00
66119;DHT22;52912;48.564;9.302;2023-02-28T15:00:22;7.67;53.74
66119;DHT22;52912;48.564;9.302;2023-02-28T15:02:48;7.87;53.11
66119;DHT22;52912;48.564;9.302;2023-02-28T15:05:24;8.08;52.85
66119;DHT22;52912;48.564;9.302;2023-02-28T15:08:01;8.08;52.81
66119;DHT22;52912;48.564;9.302;2023-02-28T15:10:27;7.52;53.72
66119;DHT22;52912;48.564;9.302;2023-02-28T15:12:54;7.60;53.57
66119;DHT22;52912;48.564;9.302;2023-02-28T15:15:21;7.09;54.98
66119;DHT22;52912;48.564;9.302;2023-02-28T15:17:50;7.49;53.61
66119;DHT22;52912;48.564;9.302;2023-02-28T15:20:19;7.12;54.11
66119;DHT22;52912;48.564;9.302;2023-02-28T15:22:46;7.15;53.90
66119;DHT22;52912;48.564;9.302;2023-02-28T15:25:15;7.36;53.76
66119;DHT22;52912;48.564;9.302;2023-02-28T15:27:44;7.29;54.08
66119;DHT22;52912;48.564;9.302;2023-02-28T15:30:15;7.19;54.26
66119;DHT22;52912;48.564;9.302;2023-02-28T15:32:41;7.39;53.58
66119;DHT22;52912;48.564;9.302;2023-02-28T15:35:27;7.42;53.83
66119;DHT22;52912;48.564;9.302;2023-02-28T15:37:55;7.32;53.78
66119;DHT22;52912;48.564;9.302;2023-02-28T15:40:26;6.98;54.31
66119;DHT22;52912;48.564;9.302;2023-02-28T15:43:03;6.94;54.93
66119;DHT22;52912;48.564;9.302;2023-02-28T15:45:33;6.69;55.51
66119;DHT22;52912;48.564;9.302;2023-02-28T15:47:59;6.83;55.73
66119;DHT22;52912;48.564;9.302;2023-02-28T15:50:28;6.83;55.96
66119;DHT22;52912;48.564;9.302;2023-02-28T15:52:53;6.70;55.83
66119;DHT22;52912;48.564;9.302;2023-02-28T15:55:22;6.74;55.96
66119;DHT22;52912;48.564;9.302;2023-02-28T15:57:50;6.81;55.61
66119;DHT22;52912;48.564;9.302;2023-02-28T16:00:20;6.39;57.04
66119;DHT22;52912;48.564;9.302;2023-02-28T16:02:46;6.54;56.97
66119;DHT22;52912;48.564;9.302;2023-02-28T16:05:23;6.18;58.01
66119;DHT22;52912;48.564;9.302;2023-02-28T16:07:51;6.04;58.64